sensor_id;sensor_type;location;lat;lon;timestamp;pressure;altitude;pressure_sealevel;temperature;humidity
69035;BME280;56091;55.756;37.412;2023-04-28T00:01:38;98444.91;;;13.72;57.67
69035;BME280;56091;55.756;37.412;2023-04-28T00:06:40;98445.84;;;13.62;57.71
69035;BME280;56091;55.756;37.412;2023-04-28T00:11:43;98448.06;;;13.60;58.07
69035;BME280;56091;55.756;37.412;2023-04-28T00:16:44;98448.66;;;13.57;58.22
69035;BME280;56091;55.756;37.412;2023-04-28T00:21:45;98444.41;;;13.51;58.57
69035;BME280;56091;55.756;37.412;2023-04-28T00:26:46;98430.50;;;13.38;58.73
69035;BME280;56091;55.756;37.412;2023-04-28T00:31:47;98439.59;;;13.47;58.67
69035;BME280;56091;55.756;37.412;2023-04-28T00:36:48;98433.66;;;13.45;58.77
69035;BME280;56091;55.756;37.412;2023-04-28T00:41:49;98438.56;;;13.43;59.25
69035;BME280;56091;55.756;37.412;2023-04-28T00:46:50;98434.53;;;13.41;59.25
69035;BME280;56091;55.756;37.412;2023-04-28T00:51:51;98424.06;;;13.34;59.49
69035;BME280;56091;55.756;37.412;2023-04-28T00:56:53;98419.81;;;13.28;60.06
69035;BME280;56091;55.756;37.412;2023-04-28T01:01:54;98433.34;;;13.28;60.09
69035;BME280;56091;55.756;37.412;2023-04-28T01:06:57;98415.41;;;13.13;60.35
69035;BME280;56091;55.756;37.412;2023-04-28T01:12:00;98431.28;;;13.20;60.34
69035;BME280;56091;55.756;37.412;2023-04-28T01:17:11;98420.53;;;13.15;60.50
69035;BME280;56091;55.756;37.412;2023-04-28T01:22:12;98437.72;;;13.24;60.29
69035;BME280;56091;55.756;37.412;2023-04-28T01:27:17;98430.19;;;13.21;60.39
69035;BME280;56091;55.756;37.412;2023-04-28T01:32:18;98431.22;;;13.25;60.47
69035;BME280;56091;55.756;37.412;2023-04-28T01:37:22;98432.81;;;13.26;60.45
69035;BME280;56091;55.756;37.412;2023-04-28T01:42:23;98435.22;;;13.27;60.41
69035;BME280;56091;55.756;37.412;2023-04-28T01:47:24;98435.41;;;13.36;60.61
69035;BME280;56091;55.756;37.412;2023-04-28T01:52:26;98435.41;;;13.36;60.41
69035;BME280;56091;55.756;37.412;2023-04-28T01:57:28;98427.06;;;13.33;60.55
69035;BME280;56091;55.756;37.412;2023-04-28T02:02:30;98427.41;;;13.26;60.84
69035;BME280;56091;55.756;37.412;2023-04-28T02:07:31;98410.78;;;13.14;61.23
69035;BME280;56091;55.756;37.412;2023-04-28T02:12:32;98418.75;;;13.05;61.75
69035;BME280;56091;55.756;37.412;2023-04-28T02:17:33;98426.06;;;13.04;61.92
69035;BME280;56091;55.756;37.412;2023-04-28T02:22:34;98432.53;;;13.08;61.96
69035;BME280;56091;55.756;37.412;2023-04-28T02:27:35;98419.25;;;13.07;62.36
69035;BME280;56091;55.756;37.412;2023-04-28T02:32:36;98428.44;;;13.11;62.05
69035;BME280;56091;55.756;37.412;2023-04-28T02:37:37;98436.78;;;13.15;62.15
69035;BME280;56091;55.756;37.412;2023-04-28T02:42:38;98437.31;;;13.17;62.13
69035;BME280;56091;55.756;37.412;2023-04-28T02:47:39;98438.59;;;13.19;61.88
69035;BME280;56091;55.756;37.412;2023-04-28T02:52:40;98442.63;;;13.22;61.76
69035;BME280;56091;55.756;37.412;2023-04-28T02:57:44;98439.84;;;13.27;61.68
69035;BME280;56091;55.756;37.412;2023-04-28T03:02:45;98449.47;;;13.38;61.47
69035;BME280;56091;55.756;37.412;2023-04-28T03:07:46;98453.66;;;13.50;61.09
69035;BME280;56091;55.756;37.412;2023-04-28T03:12:47;98387.88;;;13.25;60.76
69035;BME280;56091;55.756;37.412;2023-04-28T03:17:48;98427.63;;;13.48;61.00
69035;BME280;56091;55.756;37.412;2023-04-28T03:22:49;98444.09;;;13.71;60.93
69035;BME280;56091;55.756;37.412;2023-04-28T03:27:50;98463.50;;;13.78;60.78
69035;BME280;56091;55.756;37.412;2023-04-28T03:32:51;98473.47;;;13.83;60.35
69035;BME280;56091;55.756;37.412;2023-04-28T03:37:52;98466.25;;;13.92;60.38
69035;BME280;56091;55.756;37.412;2023-04-28T03:42:55;98468.81;;;14.02;59.95
69035;BME280;56091;55.756;37.412;2023-04-28T03:48:07;98475.94;;;14.12;59.80
69035;BME280;56091;55.756;37.412;2023-04-28T03:53:08;98464.00;;;14.13;59.41
69035;BME280;56091;55.756;37.412;2023-04-28T03:58:09;98473.97;;;14.32;59.06
69035;BME280;56091;55.756;37.412;2023-04-28T04:03:13;98474.47;;;14.34;59.10
69035;BME280;56091;55.756;37.412;2023-04-28T04:08:16;98479.25;;;14.42;59.03
69035;BME280;56091;55.756;37.412;2023-04-28T04:13:17;98473.91;;;14.51;58.74
69035;BME280;56091;55.756;37.412;2023-04-28T04:18:19;98474.16;;;14.68;58.14
69035;BME280;56091;55.756;37.412;2023-04-28T04:23:52;98480.19;;;14.79;57.67
69035;BME280;56091;55.756;37.412;2023-04-28T04:28:53;98491.63;;;14.76;57.77
69035;BME280;56091;55.756;37.412;2023-04-28T04:33:54;98486.75;;;14.45;59.04
69035;BME280;56091;55.756;37.412;2023-04-28T04:38:55;98506.94;;;14.39;59.95
69035;BME280;56091;55.756;37.412;2023-04-28T04:43:56;98513.19;;;14.06;61.30
69035;BME280;56091;55.756;37.412;2023-04-28T04:49:02;98488.91;;;13.63;63.33
69035;BME280;56091;55.756;37.412;2023-04-28T04:54:03;98511.63;;;13.48;64.16
69035;BME280;56091;55.756;37.412;2023-04-28T04:59:05;98496.53;;;13.42;64.76
69035;BME280;56091;55.756;37.412;2023-04-28T05:04:24;98506.06;;;13.59;64.14
69035;BME280;56091;55.756;37.412;2023-04-28T05:09:28;98527.81;;;13.73;64.23
69035;BME280;56091;55.756;37.412;2023-04-28T05:14:30;98531.53;;;13.77;63.88
69035;BME280;56091;55.756;37.412;2023-04-28T05:19:31;98545.09;;;13.77;64.51
69035;BME280;56091;55.756;37.412;2023-04-28T05:24:35;98528.38;;;13.89;65.07
69035;BME280;56091;55.756;37.412;2023-04-28T05:29:39;98538.06;;;13.57;65.57
69035;BME280;56091;55.756;37.412;2023-04-28T05:34:41;98526.28;;;13.47;66.47
69035;BME280;56091;55.756;37.412;2023-04-28T05:39:42;98533.63;;;13.66;66.90
69035;BME280;56091;55.756;37.412;2023-04-28T05:44:43;98540.84;;;13.71;66.91
69035;BME280;56091;55.756;37.412;2023-04-28T05:49:44;98539.31;;;13.83;67.70
69035;BME280;56091;55.756;37.412;2023-04-28T05:54:45;98531.63;;;13.91;69.61
69035;BME280;56091;55.756;37.412;2023-04-28T05:59:46;98542.06;;;13.97;69.83
69035;BME280;56091;55.756;37.412;2023-04-28T06:04:48;98543.06;;;14.20;70.44
69035;BME280;56091;55.756;37.412;2023-04-28T06:09:54;98530.88;;;14.51;69.74
69035;BME280;56091;55.756;37.412;2023-04-28T06:14:55;98535.78;;;14.81;68.95
69035;BME280;56091;55.756;37.412;2023-04-28T06:19:59;98519.41;;;15.14;67.97
69035;BME280;56091;55.756;37.412;2023-04-28T06:25:00;98529.66;;;15.68;66.24
69035;BME280;56091;55.756;37.412;2023-04-28T06:30:08;98524.97;;;15.96;65.20
69035;BME280;56091;55.756;37.412;2023-04-28T06:35:11;98519.53;;;15.96;62.98
69035;BME280;56091;55.756;37.412;2023-04-28T06:40:12;98524.41;;;16.08;62.11
69035;BME280;56091;55.756;37.412;2023-04-28T06:45:20;98524.91;;;16.10;62.08
69035;BME280;56091;55.756;37.412;2023-04-28T06:50:24;98526.38;;;15.93;62.36
69035;BME280;56091;55.756;37.412;2023-04-28T06:55:28;98522.50;;;16.08;62.11
69035;BME280;56091;55.756;37.412;2023-04-28T07:00:32;98509.31;;;16.55;60.29
69035;BME280;56091;55.756;37.412;2023-04-28T07:05:34;98467.28;;;16.70;59.31
69035;BME280;56091;55.756;37.412;2023-04-28T07:10:35;98518.59;;;17.34;57.87
69035;BME280;56091;55.756;37.412;2023-04-28T07:15:36;98521.84;;;17.54;56.91
69035;BME280;56091;55.756;37.412;2023-04-28T07:20:37;98536.94;;;17.78;56.37
69035;BME280;56091;55.756;37.412;2023-04-28T07:25:38;98529.84;;;17.42;57.04
69035;BME280;56091;55.756;37.412;2023-04-28T07:30:40;98537.63;;;16.77;59.45
69035;BME280;56091;55.756;37.412;2023-04-28T07:35:41;98547.09;;;16.26;60.81
69035;BME280;56091;55.756;37.412;2023-04-28T07:40:42;98543.19;;;16.18;61.34
69035;BME280;56091;55.756;37.412;2023-04-28T07:45:44;98545.63;;;16.19;61.85
69035;BME280;56091;55.756;37.412;2023-04-28T07:50:48;98546.28;;;16.03;62.37
69035;BME280;56091;55.756;37.412;2023-04-28T07:55:49;98540.25;;;16.06;62.16
69035;BME280;56091;55.756;37.412;2023-04-28T08:00:50;98543.19;;;16.40;60.43
69035;BME280;56091;55.756;37.412;2023-04-28T08:05:51;98535.69;;;16.46;60.46
69035;BME280;56091;55.756;37.412;2023-04-28T08:10:51;98546.53;;;16.37;60.91
69035;BME280;56091;55.756;37.412;2023-04-28T08:15:54;98542.88;;;16.19;61.78
69035;BME280;56091;55.756;37.412;2023-04-28T08:20:59;98530.72;;;15.94;62.61
69035;BME280;56091;55.756;37.412;2023-04-28T08:26:00;98542.56;;;15.76;63.60
69035;BME280;56091;55.756;37.412;2023-04-28T08:31:01;98535.81;;;15.73;64.93
69035;BME280;56091;55.756;37.412;2023-04-28T08:36:05;98549.72;;;15.58;66.10
69035;BME280;56091;55.756;37.412;2023-04-28T08:41:06;98538.50;;;15.37;67.06
69035;BME280;56091;55.756;37.412;2023-04-28T08:46:08;98551.25;;;15.36;67.98
69035;BME280;56091;55.756;37.412;2023-04-28T08:51:14;98556.31;;;15.29;68.38
69035;BME280;56091;55.756;37.412;2023-04-28T08:56:16;98545.44;;;15.29;68.39
69035;BME280;56091;55.756;37.412;2023-04-28T09:01:18;98554.09;;;15.31;68.15
69035;BME280;56091;55.756;37.412;2023-04-28T09:06:18;98538.41;;;15.28;68.89
69035;BME280;56091;55.756;37.412;2023-04-28T09:11:21;98555.50;;;15.42;68.03
69035;BME280;56091;55.756;37.412;2023-04-28T09:16:38;98538.22;;;15.61;67.38
69035;BME280;56091;55.756;37.412;2023-04-28T09:21:46;98550.19;;;16.33;65.50
69035;BME280;56091;55.756;37.412;2023-04-28T09:26:49;98560.34;;;16.41;64.55
69035;BME280;56091;55.756;37.412;2023-04-28T09:31:53;98549.75;;;16.71;63.85
69035;BME280;56091;55.756;37.412;2023-04-28T09:36:54;98539.97;;;17.50;60.78
69035;BME280;56091;55.756;37.412;2023-04-28T09:41:55;98546.22;;;17.42;61.18
69035;BME280;56091;55.756;37.412;2023-04-28T09:46:57;98540.28;;;17.00;62.54
69035;BME280;56091;55.756;37.412;2023-04-28T09:52:11;98543.06;;;16.46;62.57
69035;BME280;56091;55.756;37.412;2023-04-28T09:57:13;98507.50;;;15.74;64.17
69035;BME280;56091;55.756;37.412;2023-04-28T10:02:15;98575.91;;;15.54;66.83
69035;BME280;56091;55.756;37.412;2023-04-28T10:07:18;98587.22;;;14.07;94.51
69035;BME280;56091;55.756;37.412;2023-04-28T10:12:20;98586.09;;;13.27;100.00
69035;BME280;56091;55.756;37.412;2023-04-28T10:17:21;98576.78;;;12.90;100.00
69035;BME280;56091;55.756;37.412;2023-04-28T10:22:58;98583.59;;;13.06;100.00
69035;BME280;56091;55.756;37.412;2023-04-28T10:28:07;98587.81;;;12.94;100.00
69035;BME280;56091;55.756;37.412;2023-04-28T10:38:16;98575.16;;;12.89;100.00
69035;BME280;56091;55.756;37.412;2023-04-28T10:58:47;98583.91;;;13.29;100.00
69035;BME280;56091;55.756;37.412;2023-04-28T11:04:07;98591.13;;;13.39;100.00
69035;BME280;56091;55.756;37.412;2023-04-28T11:19:24;98600.38;;;13.08;100.00
69035;BME280;56091;55.756;37.412;2023-04-28T11:24:27;98599.06;;;13.06;100.00
69035;BME280;56091;55.756;37.412;2023-04-28T11:29:49;98574.19;;;13.04;100.00
69035;BME280;56091;55.756;37.412;2023-04-28T11:34:51;98601.31;;;12.69;100.00
69035;BME280;56091;55.756;37.412;2023-04-28T11:39:52;98605.28;;;12.48;100.00
69035;BME280;56091;55.756;37.412;2023-04-28T11:44:53;98590.00;;;12.92;100.00
69035;BME280;56091;55.756;37.412;2023-04-28T11:49:54;98582.94;;;13.44;99.21
69035;BME280;56091;55.756;37.412;2023-04-28T11:54:58;98541.31;;;13.11;96.74
69035;BME280;56091;55.756;37.412;2023-04-28T12:00:14;98614.09;;;13.17;95.29
69035;BME280;56091;55.756;37.412;2023-04-28T12:05:21;98575.38;;;13.41;91.06
69035;BME280;56091;55.756;37.412;2023-04-28T12:10:22;98603.94;;;13.95;90.07
69035;BME280;56091;55.756;37.412;2023-04-28T12:15:23;98604.94;;;13.37;89.03
69035;BME280;56091;55.756;37.412;2023-04-28T12:20:37;98608.84;;;13.26;90.32
69035;BME280;56091;55.756;37.412;2023-04-28T12:25:47;98607.50;;;12.99;94.63
69035;BME280;56091;55.756;37.412;2023-04-28T12:30:47;98611.50;;;12.78;90.71
69035;BME280;56091;55.756;37.412;2023-04-28T12:35:48;98552.28;;;12.47;92.66
69035;BME280;56091;55.756;37.412;2023-04-28T12:40:50;98609.00;;;12.86;88.74
69035;BME280;56091;55.756;37.412;2023-04-28T12:45:51;98607.25;;;12.72;90.93
69035;BME280;56091;55.756;37.412;2023-04-28T12:50:53;98583.84;;;12.27;94.06
69035;BME280;56091;55.756;37.412;2023-04-28T12:55:53;98609.88;;;12.13;90.82
69035;BME280;56091;55.756;37.412;2023-04-28T13:00:54;98601.22;;;11.66;93.70
69035;BME280;56091;55.756;37.412;2023-04-28T13:05:55;98616.69;;;11.56;92.38
69035;BME280;56091;55.756;37.412;2023-04-28T13:10:56;98612.44;;;11.34;91.85
69035;BME280;56091;55.756;37.412;2023-04-28T13:15:56;98634.28;;;11.38;92.59
69035;BME280;56091;55.756;37.412;2023-04-28T13:20:58;98638.34;;;11.40;91.08
69035;BME280;56091;55.756;37.412;2023-04-28T13:25:59;98617.88;;;11.24;89.94
69035;BME280;56091;55.756;37.412;2023-04-28T13:31:00;98623.06;;;11.05;88.49
69035;BME280;56091;55.756;37.412;2023-04-28T13:36:01;98655.72;;;10.88;86.73
69035;BME280;56091;55.756;37.412;2023-04-28T13:41:02;98650.09;;;10.69;86.93
69035;BME280;56091;55.756;37.412;2023-04-28T13:46:03;98658.97;;;10.49;86.29
69035;BME280;56091;55.756;37.412;2023-04-28T13:51:07;98656.22;;;10.23;85.08
69035;BME280;56091;55.756;37.412;2023-04-28T13:56:09;98598.75;;;9.71;84.80
69035;BME280;56091;55.756;37.412;2023-04-28T14:01:10;98676.41;;;10.10;85.17
69035;BME280;56091;55.756;37.412;2023-04-28T14:06:11;98666.97;;;10.03;84.56
69035;BME280;56091;55.756;37.412;2023-04-28T14:11:13;98663.75;;;10.06;84.62
69035;BME280;56091;55.756;37.412;2023-04-28T14:16:15;98688.25;;;10.04;84.60
69035;BME280;56091;55.756;37.412;2023-04-28T14:21:16;98691.97;;;9.83;85.12
69035;BME280;56091;55.756;37.412;2023-04-28T14:26:16;98686.03;;;9.75;85.08
69035;BME280;56091;55.756;37.412;2023-04-28T14:31:18;98682.72;;;9.63;85.75
69035;BME280;56091;55.756;37.412;2023-04-28T14:36:19;98699.13;;;9.56;85.67
69035;BME280;56091;55.756;37.412;2023-04-28T14:41:20;98709.88;;;9.51;85.56
69035;BME280;56091;55.756;37.412;2023-04-28T14:46:21;98699.41;;;9.55;86.23
69035;BME280;56091;55.756;37.412;2023-04-28T14:51:25;98698.88;;;9.63;86.05
69035;BME280;56091;55.756;37.412;2023-04-28T14:56:26;98705.31;;;9.57;85.33
69035;BME280;56091;55.756;37.412;2023-04-28T15:01:27;98690.44;;;9.44;86.19
69035;BME280;56091;55.756;37.412;2023-04-28T15:06:28;98681.41;;;9.13;85.48
69035;BME280;56091;55.756;37.412;2023-04-28T15:11:28;98690.72;;;9.00;85.60
69035;BME280;56091;55.756;37.412;2023-04-28T15:16:29;98728.16;;;9.07;84.79
69035;BME280;56091;55.756;37.412;2023-04-28T15:21:30;98716.28;;;9.03;84.29
69035;BME280;56091;55.756;37.412;2023-04-28T15:26:31;98720.06;;;9.02;83.14
69035;BME280;56091;55.756;37.412;2023-04-28T15:31:32;98746.38;;;8.94;82.77
69035;BME280;56091;55.756;37.412;2023-04-28T15:36:36;98726.13;;;8.87;83.88
69035;BME280;56091;55.756;37.412;2023-04-28T15:41:38;98709.44;;;8.85;84.35
69035;BME280;56091;55.756;37.412;2023-04-28T15:46:39;98729.59;;;8.82;84.14
69035;BME280;56091;55.756;37.412;2023-04-28T15:51:40;98735.31;;;8.91;85.54
69035;BME280;56091;55.756;37.412;2023-04-28T15:56:41;98734.22;;;8.87;86.81
69035;BME280;56091;55.756;37.412;2023-04-28T16:01:42;98722.84;;;8.79;87.99
69035;BME280;56091;55.756;37.412;2023-04-28T16:06:45;98723.50;;;8.59;88.64
69035;BME280;56091;55.756;37.412;2023-04-28T16:11:46;98724.31;;;8.38;89.23
69035;BME280;56091;55.756;37.412;2023-04-28T16:16:47;98740.03;;;8.24;89.18
69035;BME280;56091;55.756;37.412;2023-04-28T16:21:49;98737.03;;;8.20;89.28
69035;BME280;56091;55.756;37.412;2023-04-28T16:26:49;98736.44;;;8.13;88.74
69035;BME280;56091;55.756;37.412;2023-04-28T16:31:50;98750.63;;;8.09;87.98
69035;BME280;56091;55.756;37.412;2023-04-28T16:36:51;98753.56;;;8.07;88.83
69035;BME280;56091;55.756;37.412;2023-04-28T16:41:52;98763.66;;;8.00;87.85
69035;BME280;56091;55.756;37.412;2023-04-28T16:46:55;98749.44;;;7.77;87.91
69035;BME280;56091;55.756;37.412;2023-04-28T16:52:01;98765.97;;;7.69;87.63
69035;BME280;56091;55.756;37.412;2023-04-28T16:57:03;98724.34;;;7.67;88.02
69035;BME280;56091;55.756;37.412;2023-04-28T17:02:04;98755.81;;;7.71;87.57
69035;BME280;56091;55.756;37.412;2023-04-28T17:07:06;98781.47;;;7.84;86.08
69035;BME280;56091;55.756;37.412;2023-04-28T17:12:07;98768.66;;;7.69;85.89
69035;BME280;56091;55.756;37.412;2023-04-28T17:17:08;98761.13;;;7.49;86.29
69035;BME280;56091;55.756;37.412;2023-04-28T17:22:09;98776.28;;;7.38;86.49
69035;BME280;56091;55.756;37.412;2023-04-28T17:27:10;98772.28;;;7.41;86.43
69035;BME280;56091;55.756;37.412;2023-04-28T17:32:11;98776.22;;;7.33;86.77
69035;BME280;56091;55.756;37.412;2023-04-28T17:37:14;98786.50;;;7.41;86.43
69035;BME280;56091;55.756;37.412;2023-04-28T17:42:15;98788.91;;;7.21;86.59
69035;BME280;56091;55.756;37.412;2023-04-28T17:47:16;98810.41;;;6.92;87.76
69035;BME280;56091;55.756;37.412;2023-04-28T17:52:17;98795.88;;;6.88;87.44
69035;BME280;56091;55.756;37.412;2023-04-28T17:57:18;98794.69;;;6.67;87.55
69035;BME280;56091;55.756;37.412;2023-04-28T18:02:21;98804.56;;;6.78;87.14
69035;BME280;56091;55.756;37.412;2023-04-28T18:07:22;98807.31;;;6.67;86.33
69035;BME280;56091;55.756;37.412;2023-04-28T18:12:23;98809.25;;;6.42;86.04
69035;BME280;56091;55.756;37.412;2023-04-28T18:17:26;98827.44;;;6.40;85.44
69035;BME280;56091;55.756;37.412;2023-04-28T18:22:27;98799.69;;;6.18;85.62
69035;BME280;56091;55.756;37.412;2023-04-28T18:27:28;98823.44;;;6.26;85.31
69035;BME280;56091;55.756;37.412;2023-04-28T18:32:28;98817.16;;;6.20;85.09
69035;BME280;56091;55.756;37.412;2023-04-28T18:37:30;98790.97;;;6.11;86.35
69035;BME280;56091;55.756;37.412;2023-04-28T18:42:31;98791.69;;;5.94;88.99
69035;BME280;56091;55.756;37.412;2023-04-28T18:47:32;98800.66;;;5.88;88.80
69035;BME280;56091;55.756;37.412;2023-04-28T18:52:33;98789.50;;;5.79;88.59
69035;BME280;56091;55.756;37.412;2023-04-28T18:57:34;98787.63;;;5.80;89.06
69035;BME280;56091;55.756;37.412;2023-04-28T19:02:34;98786.72;;;5.74;89.87
69035;BME280;56091;55.756;37.412;2023-04-28T19:07:36;98790.94;;;5.58;90.15
69035;BME280;56091;55.756;37.412;2023-04-28T19:12:37;98789.41;;;5.62;90.75
69035;BME280;56091;55.756;37.412;2023-04-28T19:17:38;98808.25;;;5.67;90.85
69035;BME280;56091;55.756;37.412;2023-04-28T19:22:40;98786.97;;;5.49;92.62
69035;BME280;56091;55.756;37.412;2023-04-28T19:27:41;98801.63;;;5.46;96.13
69035;BME280;56091;55.756;37.412;2023-04-28T19:32:47;98802.31;;;5.30;98.38
69035;BME280;56091;55.756;37.412;2023-04-28T19:37:48;98821.03;;;5.30;99.86
69035;BME280;56091;55.756;37.412;2023-04-28T19:42:49;98817.31;;;5.19;99.92
69035;BME280;56091;55.756;37.412;2023-04-28T19:47:51;98803.94;;;5.19;100.00
69035;BME280;56091;55.756;37.412;2023-04-28T19:52:52;98802.19;;;5.25;100.00
69035;BME280;56091;55.756;37.412;2023-04-28T19:57:53;98802.28;;;5.06;100.00
69035;BME280;56091;55.756;37.412;2023-04-28T20:02:58;98793.66;;;4.93;100.00
69035;BME280;56091;55.756;37.412;2023-04-28T20:07:59;98799.34;;;4.84;100.00
69035;BME280;56091;55.756;37.412;2023-04-28T20:13:00;98806.31;;;4.85;100.00
69035;BME280;56091;55.756;37.412;2023-04-28T20:18:01;98799.22;;;4.79;100.00
69035;BME280;56091;55.756;37.412;2023-04-28T20:23:02;98802.38;;;4.76;99.03
69035;BME280;56091;55.756;37.412;2023-04-28T20:28:03;98779.50;;;4.50;97.31
69035;BME280;56091;55.756;37.412;2023-04-28T20:33:03;98786.75;;;4.61;96.57
69035;BME280;56091;55.756;37.412;2023-04-28T20:38:04;98792.78;;;4.68;96.08
69035;BME280;56091;55.756;37.412;2023-04-28T20:43:08;98797.09;;;4.69;94.78
69035;BME280;56091;55.756;37.412;2023-04-28T20:48:11;98809.75;;;4.74;95.75
69035;BME280;56091;55.756;37.412;2023-04-28T20:53:13;98800.72;;;4.75;94.78
69035;BME280;56091;55.756;37.412;2023-04-28T20:58:13;98801.53;;;4.76;94.25
69035;BME280;56091;55.756;37.412;2023-04-28T21:03:14;98805.47;;;4.73;93.47
69035;BME280;56091;55.756;37.412;2023-04-28T21:08:15;98777.91;;;4.61;92.89
69035;BME280;56091;55.756;37.412;2023-04-28T21:13:16;98798.81;;;4.64;92.17
69035;BME280;56091;55.756;37.412;2023-04-28T21:18:17;98737.06;;;4.30;92.16
69035;BME280;56091;55.756;37.412;2023-04-28T21:23:19;98809.16;;;4.60;91.55
69035;BME280;56091;55.756;37.412;2023-04-28T21:28:20;98813.41;;;4.49;92.39
69035;BME280;56091;55.756;37.412;2023-04-28T21:33:21;98802.03;;;4.42;91.84
69035;BME280;56091;55.756;37.412;2023-04-28T21:38:25;98821.13;;;4.58;91.71
69035;BME280;56091;55.756;37.412;2023-04-28T21:43:25;98801.94;;;4.61;92.05
69035;BME280;56091;55.756;37.412;2023-04-28T21:48:26;98802.63;;;4.56;92.40
69035;BME280;56091;55.756;37.412;2023-04-28T21:53:27;98802.84;;;4.55;93.00
69035;BME280;56091;55.756;37.412;2023-04-28T21:58:28;98791.78;;;4.39;92.49
69035;BME280;56091;55.756;37.412;2023-04-28T22:03:29;98805.94;;;4.40;92.98
69035;BME280;56091;55.756;37.412;2023-04-28T22:08:30;98796.84;;;4.29;92.11
69035;BME280;56091;55.756;37.412;2023-04-28T22:13:31;98805.31;;;4.26;92.36
69035;BME280;56091;55.756;37.412;2023-04-28T22:18:32;98770.41;;;4.09;92.24
69035;BME280;56091;55.756;37.412;2023-04-28T22:23:35;98773.91;;;3.91;93.00
69035;BME280;56091;55.756;37.412;2023-04-28T22:28:36;98800.66;;;3.84;94.78
69035;BME280;56091;55.756;37.412;2023-04-28T22:33:37;98792.59;;;3.72;96.96
69035;BME280;56091;55.756;37.412;2023-04-28T22:38:38;98777.16;;;3.56;95.89
69035;BME280;56091;55.756;37.412;2023-04-28T22:43:39;98787.03;;;3.56;96.69
69035;BME280;56091;55.756;37.412;2023-04-28T22:48:40;98780.56;;;3.45;95.12
69035;BME280;56091;55.756;37.412;2023-04-28T22:53:41;98783.81;;;3.47;96.51
69035;BME280;56091;55.756;37.412;2023-04-28T22:58:42;98775.09;;;3.40;97.19
69035;BME280;56091;55.756;37.412;2023-04-28T23:03:44;98765.56;;;3.25;97.19
69035;BME280;56091;55.756;37.412;2023-04-28T23:08:50;98761.44;;;3.29;98.21
69035;BME280;56091;55.756;37.412;2023-04-28T23:13:51;98761.00;;;3.32;99.58
69035;BME280;56091;55.756;37.412;2023-04-28T23:18:52;98700.69;;;2.95;100.00
69035;BME280;56091;55.756;37.412;2023-04-28T23:23:53;98762.78;;;3.39;100.00
69035;BME280;56091;55.756;37.412;2023-04-28T23:28:54;98771.38;;;3.41;100.00
69035;BME280;56091;55.756;37.412;2023-04-28T23:33:55;98782.31;;;3.32;100.00
69035;BME280;56091;55.756;37.412;2023-04-28T23:38:59;98747.34;;;3.22;100.00
69035;BME280;56091;55.756;37.412;2023-04-28T23:44:00;98791.50;;;3.37;99.66
69035;BME280;56091;55.756;37.412;2023-04-28T23:49:01;98772.91;;;3.30;100.00
69035;BME280;56091;55.756;37.412;2023-04-28T23:54:02;98795.00;;;3.37;99.30
69035;BME280;56091;55.756;37.412;2023-04-28T23:59:03;98795.13;;;3.24;98.18
